Terminal Aerodrome Forecast
Issued by NWS

Home | Current Version | Previous Version | Graphics & Text | Print | Product List | Glossary On
Versions: 1 2 3 4 5 6 7 8 9 10 11 12 13 14 15 16 17
000
FTUS43 KBIS 200500
TAFMOT
TAF
KMOT 200530Z 2006/2106 17014KT P6SM SCT090
     FM200900 22012KT P6SM SCT090
     FM201500 27015G25KT P6SM SCT090=

USA.gov is the U.S. government's official web portal to all federal, state and local government web resources and services.